ADDS METAR Data INFO
IDs: Format: Raw Decoded Include TAF

Data at: 0321 UTC 16 Dec 2017

KSAC 160253Z 00000KT 9SM CLR 11/07 A3004 RMK AO2 SLP171 T01060067 58006
KSAC 160153Z 00000KT 10SM CLR 11/07 A3005 RMK AO2 SLP174 T01060067
KSAC 160053Z 00000KT 10SM CLR 11/07 A3005 RMK AO2 SLP177 T01110067
KSAC 152353Z 35003KT 10SM CLR 14/06 A3005 RMK AO2 SLP177 T01440061 10156 20078 56021
KSAC 152253Z 00000KT 9SM CLR 15/07 A3006 RMK AO2 SLP180 T01500072
KSAC 152153Z 00000KT 8SM CLR 15/07 A3008 RMK AO2 SLP185 T01500072
KSAC 152053Z 00000KT 7SM CLR 14/07 A3012 RMK AO2 SLP198 T01390072 58033
KSAC 151953Z 00000KT 6SM HZ CLR 12/07 A3016 RMK AO2 SLP211 T01220072
KSAC 151853Z 00000KT 5SM HZ CLR 10/07 A3019 RMK AO2 SLP223 T01000072
KSAC 151753Z 00000KT 4SM BR CLR 08/07 A3021 RMK AO2 SLP231 T00780067 10078 20006 53005
KSAC 151653Z 00000KT 4SM BR CLR 05/05 A3021 RMK AO2 SLP228 T00500050
KSAC 151553Z 00000KT 3SM BR CLR 03/03 A3020 RMK AO2 SLP226 T00330033
KSAC 151453Z 00000KT 5SM BR SCT004 02/02 A3020 RMK AO2 SLP226 T00170017 58001
KSAC 151439Z 00000KT 5SM BR SCT004 01/01 A3020 RMK AO2 T00110011
KSAC 151353Z AUTO 00000KT 3SM BR CLR 01/01 A3020 RMK AO2 SLP226 T00110011
KSAC 151351Z AUTO 00000KT 3SM BR CLR 02/02 A3020 RMK AO2
KSAC 151326Z AUTO 10003KT 1 1/2SM BR SCT008 02/02 A3019 RMK AO2 T00170017
KSAC 151314Z AUTO 00000KT 1 1/2SM BR BKN008 02/02 A3020 RMK AO2 T00170017
KSAC 151253Z AUTO 00000KT 1/4SM FG VV005 02/02 A3021 RMK AO2 SLP229 T00170017
KSAC 151204Z AUTO 00000KT 1/4SM FG VV009 01/01 A3020 RMK AO2 T00110011
KSAC 151157Z AUTO 00000KT 3/4SM BR CLR 02/02 A3020 RMK AO2 T00170017
KSAC 151153Z AUTO 00000KT 2SM BR CLR 02/02 A3020 RMK AO2 SLP227 T00220022 10056 20011 58004
KSAC 151151Z AUTO 00000KT 2 1/2SM BR CLR 02/02 A3020 RMK AO2
KSAC 151129Z AUTO 00000KT 3SM BR CLR 02/02 A3021 RMK AO2 T00170017
KSAC 151110Z AUTO 00000KT 2 1/2SM BR FEW009 02/02 A3022 RMK AO2 T00170017
KSAC 151102Z AUTO 00000KT 3SM BR FEW011 02/02 A3022 RMK AO2 T00170017
KSAC 151059Z AUTO 00000KT 1 3/4SM BR FEW011 02/02 A3022 RMK AO2 T00170017
KSAC 151053Z AUTO 28003KT 1/2SM FG VV011 02/02 A3022 RMK AO2 SLP232 T00170017
KSAC 151047Z AUTO 00000KT 1/4SM FG VV011 02/02 A3021 RMK AO2
KSAC 151036Z AUTO 00000KT 1/4SM FG CLR 02/02 A3021 RMK AO2 T00220022
KSAC 151032Z AUTO 00000KT 1/2SM FG VV009 02/02 A3021 RMK AO2 T00170017
KSAC 151029Z AUTO 00000KT 1SM BR VV010 02/02 A3020 RMK AO2 T00220022
KSAC 151018Z AUTO 00000KT 2SM BR FEW010 03/03 A3021 RMK AO2 T00280028
KSAC 151015Z AUTO 00000KT 1SM BR VV011 02/02 A3021 RMK AO2 T00220022
KSAC 151004Z AUTO 00000KT 1/4SM FG VV010 02/02 A3021 RMK AO2 T00220022
KSAC 150953Z AUTO 00000KT 3/4SM BR CLR 03/02 A3021 RMK AO2 SLP231 T00280022
KSAC 150937Z AUTO 00000KT 3/4SM BR CLR 03/03 A3021 RMK AO2 T00280028
KSAC 150919Z AUTO 00000KT 2SM BR CLR 03/03 A3021 RMK AO2 T00280028
KSAC 150853Z AUTO 00000KT 3SM BR CLR 03/03 A3020 RMK AO2 SLP227 T00330033 51005
KSAC 150842Z AUTO 00000KT 2SM BR CLR 03/03 A3020 RMK AO2 T00330033
KSAC 150824Z AUTO 00000KT 3SM BR CLR 03/03 A3020 RMK AO2 T00330033
KSAC 150753Z AUTO 00000KT 2 1/2SM BR CLR 04/04 A3020 RMK AO2 SLP225 T00390039 401671011
KSAC 150750Z AUTO 00000KT 3SM BR CLR 04/04 A3020 RMK AO2
KSAC 150733Z AUTO 00000KT 1 1/4SM BR CLR 04/04 A3020 RMK AO2 T00390039
KSAC 150703Z AUTO 00000KT 2 1/2SM BR CLR 04/04 A3020 RMK AO2 T00390039
KSAC 150653Z AUTO 00000KT 3SM BR CLR 04/04 A3020 RMK AO2 SLP226 T00440039
KSAC 150553Z AUTO 00000KT 3SM BR CLR 05/04 A3019 RMK AO2 SLP222 T00500044 10161 20050 53013
KSAC 150453Z 00000KT 5SM BR CLR 06/04 A3017 RMK AO2 SLP217 T00610044
KSAC 150353Z 00000KT 5SM BR CLR 07/06 A3016 RMK AO2 SLP214 T00670056
KSAC 150253Z 00000KT 6SM BR CLR 07/05 A3015 RMK AO2 SLP210 T00720050 53010
KSAC 150153Z 00000KT 7SM CLR 09/06 A3013 RMK AO2 SLP203 T00940061
KSAC 150053Z 00000KT 6SM HZ CLR 13/06 A3013 RMK AO2 SLP201 T01280061
KSAC 142353Z 00000KT 7SM CLR 16/06 A3012 RMK AO2 SLP199 T01610061 10167 20094 55000
KSAC 142253Z VRB03KT 7SM CLR 16/06 A3011 RMK AO2 SLP196 T01610056
KSAC 142153Z 00000KT 6SM HZ CLR 16/06 A3012 RMK AO2 SLP198 T01610061
KSAC 142053Z VRB04KT 5SM HZ CLR 16/06 A3012 RMK AO2 SLP200 T01560061 58013
KSAC 141953Z 14003KT 5SM HZ CLR 13/07 A3014 RMK AO2 SLP207 T01330067
KSAC 141853Z 16005KT 6SM HZ CLR 12/06 A3017 RMK AO2 SLP214 T01220061
KSAC 141753Z 14006KT 6SM HZ CLR 09/06 A3016 RMK AO2 SLP213 T00940061 10094 21011 51018
KSAC 141653Z 14003KT 5SM BR CLR 06/04 A3015 RMK AO2 SLP207 T00560044
KSAC 141553Z 11003KT 4SM BR CLR 01/01 A3013 RMK AO2 SLP201 T00110011